sensor_id;sensor_type;location;lat;lon;timestamp;temperature;humidity
59973;DHT22;55298;-36.624;-64.282;2022-08-14T00:00:57;18.40;59.50
59973;DHT22;55298;-36.624;-64.282;2022-08-14T00:03:28;18.30;59.60
59973;DHT22;55298;-36.624;-64.282;2022-08-14T00:05:59;18.30;60.00
59973;DHT22;55298;-36.624;-64.282;2022-08-14T00:08:29;18.20;60.60
59973;DHT22;55298;-36.624;-64.282;2022-08-14T00:10:58;18.00;61.30
59973;DHT22;55298;-36.624;-64.282;2022-08-14T00:13:27;17.90;62.10
59973;DHT22;55298;-36.624;-64.282;2022-08-14T00:15:58;17.80;62.90
59973;DHT22;55298;-36.624;-64.282;2022-08-14T00:18:28;17.80;63.40
59973;DHT22;55298;-36.624;-64.282;2022-08-14T00:20:57;17.60;64.10
59973;DHT22;55298;-36.624;-64.282;2022-08-14T00:23:28;17.60;64.90
59973;DHT22;55298;-36.624;-64.282;2022-08-14T00:25:57;17.50;65.60
59973;DHT22;55298;-36.624;-64.282;2022-08-14T00:28:27;17.40;66.00
59973;DHT22;55298;-36.624;-64.282;2022-08-14T00:30:58;17.40;66.60
59973;DHT22;55298;-36.624;-64.282;2022-08-14T00:33:30;17.40;67.20
59973;DHT22;55298;-36.624;-64.282;2022-08-14T00:36:02;17.40;67.20
59973;DHT22;55298;-36.624;-64.282;2022-08-14T00:38:32;17.50;67.20
59973;DHT22;55298;-36.624;-64.282;2022-08-14T00:41:03;17.60;67.30
59973;DHT22;55298;-36.624;-64.282;2022-08-14T00:43:36;17.50;67.30
59973;DHT22;55298;-36.624;-64.282;2022-08-14T00:46:08;17.60;67.00
59973;DHT22;55298;-36.624;-64.282;2022-08-14T00:48:38;17.60;67.10
59973;DHT22;55298;-36.624;-64.282;2022-08-14T00:51:09;17.60;67.40
59973;DHT22;55298;-36.624;-64.282;2022-08-14T00:53:39;17.60;67.60
59973;DHT22;55298;-36.624;-64.282;2022-08-14T00:56:09;17.60;67.80
59973;DHT22;55298;-36.624;-64.282;2022-08-14T00:58:39;17.50;68.00
59973;DHT22;55298;-36.624;-64.282;2022-08-14T01:01:09;17.50;68.40
59973;DHT22;55298;-36.624;-64.282;2022-08-14T01:03:41;17.40;68.90
59973;DHT22;55298;-36.624;-64.282;2022-08-14T01:06:11;17.40;69.50
59973;DHT22;55298;-36.624;-64.282;2022-08-14T01:08:43;17.30;70.20
59973;DHT22;55298;-36.624;-64.282;2022-08-14T01:11:12;17.20;70.80
59973;DHT22;55298;-36.624;-64.282;2022-08-14T01:13:43;17.20;71.30
59973;DHT22;55298;-36.624;-64.282;2022-08-14T01:16:14;17.20;71.80
59973;DHT22;55298;-36.624;-64.282;2022-08-14T01:18:43;17.10;72.20
59973;DHT22;55298;-36.624;-64.282;2022-08-14T01:21:32;17.20;72.30
59973;DHT22;55298;-36.624;-64.282;2022-08-14T01:24:02;17.20;72.10
59973;DHT22;55298;-36.624;-64.282;2022-08-14T01:26:34;17.20;72.20
59973;DHT22;55298;-36.624;-64.282;2022-08-14T01:29:04;17.30;72.40
59973;DHT22;55298;-36.624;-64.282;2022-08-14T01:31:36;17.30;72.30
59973;DHT22;55298;-36.624;-64.282;2022-08-14T01:34:20;17.40;72.50
59973;DHT22;55298;-36.624;-64.282;2022-08-14T01:36:52;17.40;72.60
59973;DHT22;55298;-36.624;-64.282;2022-08-14T01:39:21;17.30;73.10
59973;DHT22;55298;-36.624;-64.282;2022-08-14T01:41:49;17.30;73.50
59973;DHT22;55298;-36.624;-64.282;2022-08-14T01:44:22;17.20;74.00
59973;DHT22;55298;-36.624;-64.282;2022-08-14T01:47:00;17.10;74.30
59973;DHT22;55298;-36.624;-64.282;2022-08-14T01:49:29;17.10;75.20
59973;DHT22;55298;-36.624;-64.282;2022-08-14T01:51:58;17.00;76.00
59973;DHT22;55298;-36.624;-64.282;2022-08-14T01:54:27;16.90;76.90
59973;DHT22;55298;-36.624;-64.282;2022-08-14T01:56:57;16.80;77.50
59973;DHT22;55298;-36.624;-64.282;2022-08-14T01:59:28;16.70;78.50
59973;DHT22;55298;-36.624;-64.282;2022-08-14T02:02:01;16.60;79.70
59973;DHT22;55298;-36.624;-64.282;2022-08-14T02:04:35;16.50;80.90
59973;DHT22;55298;-36.624;-64.282;2022-08-14T02:07:05;16.40;81.90
59973;DHT22;55298;-36.624;-64.282;2022-08-14T02:09:35;16.40;83.00
59973;DHT22;55298;-36.624;-64.282;2022-08-14T02:12:07;16.30;83.80
59973;DHT22;55298;-36.624;-64.282;2022-08-14T02:14:36;16.30;84.60
59973;DHT22;55298;-36.624;-64.282;2022-08-14T02:17:06;16.20;85.20
59973;DHT22;55298;-36.624;-64.282;2022-08-14T02:19:35;16.30;85.70
59973;DHT22;55298;-36.624;-64.282;2022-08-14T02:22:04;16.10;85.90
59973;DHT22;55298;-36.624;-64.282;2022-08-14T02:24:33;16.10;86.50
59973;DHT22;55298;-36.624;-64.282;2022-08-14T02:27:03;16.10;87.30
59973;DHT22;55298;-36.624;-64.282;2022-08-14T02:29:31;16.00;87.80
59973;DHT22;55298;-36.624;-64.282;2022-08-14T02:32:00;16.00;88.20
59973;DHT22;55298;-36.624;-64.282;2022-08-14T02:34:34;15.90;88.80
59973;DHT22;55298;-36.624;-64.282;2022-08-14T02:37:07;15.90;89.30
59973;DHT22;55298;-36.624;-64.282;2022-08-14T02:39:42;15.90;89.70
59973;DHT22;55298;-36.624;-64.282;2022-08-14T02:42:16;15.80;90.10
59973;DHT22;55298;-36.624;-64.282;2022-08-14T02:44:49;15.80;90.20
59973;DHT22;55298;-36.624;-64.282;2022-08-14T02:47:18;15.80;90.40
59973;DHT22;55298;-36.624;-64.282;2022-08-14T02:49:48;15.70;90.60
59973;DHT22;55298;-36.624;-64.282;2022-08-14T02:52:17;15.70;90.70
59973;DHT22;55298;-36.624;-64.282;2022-08-14T02:54:46;15.70;90.70
59973;DHT22;55298;-36.624;-64.282;2022-08-14T02:57:14;15.70;91.00
59973;DHT22;55298;-36.624;-64.282;2022-08-14T02:59:43;15.70;91.10
59973;DHT22;55298;-36.624;-64.282;2022-08-14T03:02:12;15.70;91.20
59973;DHT22;55298;-36.624;-64.282;2022-08-14T03:04:42;15.70;91.30
59973;DHT22;55298;-36.624;-64.282;2022-08-14T03:07:10;15.70;91.30
59973;DHT22;55298;-36.624;-64.282;2022-08-14T03:09:42;15.60;91.50
59973;DHT22;55298;-36.624;-64.282;2022-08-14T03:12:11;15.70;91.70
59973;DHT22;55298;-36.624;-64.282;2022-08-14T03:14:40;15.60;91.90
59973;DHT22;55298;-36.624;-64.282;2022-08-14T03:17:15;15.60;92.10
59973;DHT22;55298;-36.624;-64.282;2022-08-14T03:19:44;15.40;92.20
59973;DHT22;55298;-36.624;-64.282;2022-08-14T03:22:12;15.40;92.60
59973;DHT22;55298;-36.624;-64.282;2022-08-14T03:24:42;15.40;92.90
59973;DHT22;55298;-36.624;-64.282;2022-08-14T03:27:11;15.30;93.10
59973;DHT22;55298;-36.624;-64.282;2022-08-14T03:29:40;15.20;93.20
59973;DHT22;55298;-36.624;-64.282;2022-08-14T03:32:08;15.20;93.50
59973;DHT22;55298;-36.624;-64.282;2022-08-14T03:34:37;15.20;93.70
59973;DHT22;55298;-36.624;-64.282;2022-08-14T03:37:04;15.20;93.70
59973;DHT22;55298;-36.624;-64.282;2022-08-14T03:39:34;15.20;93.90
59973;DHT22;55298;-36.624;-64.282;2022-08-14T03:42:04;15.10;94.00
59973;DHT22;55298;-36.624;-64.282;2022-08-14T03:44:32;15.10;94.10
59973;DHT22;55298;-36.624;-64.282;2022-08-14T03:47:01;15.10;94.20
59973;DHT22;55298;-36.624;-64.282;2022-08-14T03:49:30;15.10;94.20
59973;DHT22;55298;-36.624;-64.282;2022-08-14T03:51:59;15.10;94.30
59973;DHT22;55298;-36.624;-64.282;2022-08-14T03:54:30;15.10;94.50
59973;DHT22;55298;-36.624;-64.282;2022-08-14T03:57:02;15.00;94.40
59973;DHT22;55298;-36.624;-64.282;2022-08-14T03:59:32;15.00;94.70
59973;DHT22;55298;-36.624;-64.282;2022-08-14T04:02:01;15.10;94.50
59973;DHT22;55298;-36.624;-64.282;2022-08-14T04:04:30;15.10;94.80
59973;DHT22;55298;-36.624;-64.282;2022-08-14T04:06:59;15.10;94.90
59973;DHT22;55298;-36.624;-64.282;2022-08-14T04:09:28;15.10;94.90
59973;DHT22;55298;-36.624;-64.282;2022-08-14T04:11:57;15.10;95.00
59973;DHT22;55298;-36.624;-64.282;2022-08-14T04:14:26;15.00;95.00
59973;DHT22;55298;-36.624;-64.282;2022-08-14T04:16:54;15.00;94.90
59973;DHT22;55298;-36.624;-64.282;2022-08-14T04:19:24;15.00;95.20
59973;DHT22;55298;-36.624;-64.282;2022-08-14T04:21:52;15.10;95.20
59973;DHT22;55298;-36.624;-64.282;2022-08-14T04:24:22;15.10;95.30
59973;DHT22;55298;-36.624;-64.282;2022-08-14T04:26:50;15.00;95.40
59973;DHT22;55298;-36.624;-64.282;2022-08-14T04:29:19;15.00;95.50
59973;DHT22;55298;-36.624;-64.282;2022-08-14T04:31:47;15.00;95.70
59973;DHT22;55298;-36.624;-64.282;2022-08-14T04:34:17;15.00;95.80
59973;DHT22;55298;-36.624;-64.282;2022-08-14T04:36:45;15.00;95.90
59973;DHT22;55298;-36.624;-64.282;2022-08-14T04:39:33;14.90;95.80
59973;DHT22;55298;-36.624;-64.282;2022-08-14T04:42:16;14.90;96.10
59973;DHT22;55298;-36.624;-64.282;2022-08-14T04:45:03;14.90;96.20
59973;DHT22;55298;-36.624;-64.282;2022-08-14T04:47:34;14.90;96.30
59973;DHT22;55298;-36.624;-64.282;2022-08-14T04:50:13;14.80;96.40
59973;DHT22;55298;-36.624;-64.282;2022-08-14T04:52:43;14.80;96.70
59973;DHT22;55298;-36.624;-64.282;2022-08-14T04:55:15;14.70;96.90
59973;DHT22;55298;-36.624;-64.282;2022-08-14T04:57:44;14.70;97.20
59973;DHT22;55298;-36.624;-64.282;2022-08-14T05:00:13;14.60;97.50
59973;DHT22;55298;-36.624;-64.282;2022-08-14T05:02:43;14.50;97.70
59973;DHT22;55298;-36.624;-64.282;2022-08-14T05:05:12;14.50;97.90
59973;DHT22;55298;-36.624;-64.282;2022-08-14T05:07:41;14.40;98.10
59973;DHT22;55298;-36.624;-64.282;2022-08-14T05:10:09;14.40;98.30
59973;DHT22;55298;-36.624;-64.282;2022-08-14T05:12:39;14.40;98.40
59973;DHT22;55298;-36.624;-64.282;2022-08-14T05:15:07;14.40;98.60
59973;DHT22;55298;-36.624;-64.282;2022-08-14T05:17:41;14.30;98.70
59973;DHT22;55298;-36.624;-64.282;2022-08-14T05:20:10;14.40;98.70
59973;DHT22;55298;-36.624;-64.282;2022-08-14T05:22:40;14.30;98.60
59973;DHT22;55298;-36.624;-64.282;2022-08-14T05:25:11;14.30;98.70
59973;DHT22;55298;-36.624;-64.282;2022-08-14T05:27:42;14.20;99.00
59973;DHT22;55298;-36.624;-64.282;2022-08-14T05:30:10;14.30;98.70
59973;DHT22;55298;-36.624;-64.282;2022-08-14T05:32:40;14.30;99.00
59973;DHT22;55298;-36.624;-64.282;2022-08-14T05:35:09;14.20;98.70
59973;DHT22;55298;-36.624;-64.282;2022-08-14T05:37:37;14.20;99.00
59973;DHT22;55298;-36.624;-64.282;2022-08-14T05:40:08;14.20;99.10
59973;DHT22;55298;-36.624;-64.282;2022-08-14T05:42:37;14.20;99.10
59973;DHT22;55298;-36.624;-64.282;2022-08-14T05:45:06;14.20;99.20
59973;DHT22;55298;-36.624;-64.282;2022-08-14T05:47:39;14.10;99.40
59973;DHT22;55298;-36.624;-64.282;2022-08-14T05:50:10;14.10;99.50
59973;DHT22;55298;-36.624;-64.282;2022-08-14T05:52:39;14.00;99.70
59973;DHT22;55298;-36.624;-64.282;2022-08-14T05:55:09;14.00;99.60
59973;DHT22;55298;-36.624;-64.282;2022-08-14T05:57:48;14.00;99.90
59973;DHT22;55298;-36.624;-64.282;2022-08-14T06:00:18;13.90;99.90
59973;DHT22;55298;-36.624;-64.282;2022-08-14T06:02:48;13.90;99.90
59973;DHT22;55298;-36.624;-64.282;2022-08-14T06:05:16;13.90;99.90
59973;DHT22;55298;-36.624;-64.282;2022-08-14T06:07:45;14.20;99.90
59973;DHT22;55298;-36.624;-64.282;2022-08-14T06:10:14;14.00;99.90
59973;DHT22;55298;-36.624;-64.282;2022-08-14T06:12:43;13.90;99.90
59973;DHT22;55298;-36.624;-64.282;2022-08-14T06:15:11;13.90;99.90
59973;DHT22;55298;-36.624;-64.282;2022-08-14T06:17:45;13.90;99.90
59973;DHT22;55298;-36.624;-64.282;2022-08-14T06:20:13;14.00;99.90
59973;DHT22;55298;-36.624;-64.282;2022-08-14T06:22:42;13.90;99.90
59973;DHT22;55298;-36.624;-64.282;2022-08-14T06:25:12;13.90;99.90
59973;DHT22;55298;-36.624;-64.282;2022-08-14T06:27:45;13.90;99.90
59973;DHT22;55298;-36.624;-64.282;2022-08-14T06:30:16;13.80;99.90
59973;DHT22;55298;-36.624;-64.282;2022-08-14T06:32:46;13.80;99.90
59973;DHT22;55298;-36.624;-64.282;2022-08-14T06:35:15;13.80;99.90
59973;DHT22;55298;-36.624;-64.282;2022-08-14T06:37:53;13.90;99.90
59973;DHT22;55298;-36.624;-64.282;2022-08-14T06:40:30;13.90;99.90
59973;DHT22;55298;-36.624;-64.282;2022-08-14T06:43:01;13.90;99.90
59973;DHT22;55298;-36.624;-64.282;2022-08-14T06:45:31;13.80;99.90
59973;DHT22;55298;-36.624;-64.282;2022-08-14T06:47:59;13.80;99.90
59973;DHT22;55298;-36.624;-64.282;2022-08-14T06:50:28;13.80;99.90
59973;DHT22;55298;-36.624;-64.282;2022-08-14T06:52:58;13.80;99.90
59973;DHT22;55298;-36.624;-64.282;2022-08-14T06:55:26;13.80;99.90
59973;DHT22;55298;-36.624;-64.282;2022-08-14T06:57:56;13.80;99.90
59973;DHT22;55298;-36.624;-64.282;2022-08-14T07:00:26;13.80;99.90
59973;DHT22;55298;-36.624;-64.282;2022-08-14T07:02:54;13.70;99.90
59973;DHT22;55298;-36.624;-64.282;2022-08-14T07:05:34;13.70;99.90
59973;DHT22;55298;-36.624;-64.282;2022-08-14T07:08:26;13.70;99.90
59973;DHT22;55298;-36.624;-64.282;2022-08-14T07:10:56;13.70;99.90
59973;DHT22;55298;-36.624;-64.282;2022-08-14T07:13:27;13.80;99.90
59973;DHT22;55298;-36.624;-64.282;2022-08-14T07:15:56;13.80;99.90
59973;DHT22;55298;-36.624;-64.282;2022-08-14T07:18:29;13.80;99.90
59973;DHT22;55298;-36.624;-64.282;2022-08-14T07:20:59;13.90;99.90
59973;DHT22;55298;-36.624;-64.282;2022-08-14T07:23:28;13.90;99.90
59973;DHT22;55298;-36.624;-64.282;2022-08-14T07:25:58;13.90;99.90
59973;DHT22;55298;-36.624;-64.282;2022-08-14T07:28:31;13.80;99.90
59973;DHT22;55298;-36.624;-64.282;2022-08-14T07:31:00;13.90;99.90
59973;DHT22;55298;-36.624;-64.282;2022-08-14T07:33:34;13.80;99.90
59973;DHT22;55298;-36.624;-64.282;2022-08-14T07:36:08;13.70;99.90
59973;DHT22;55298;-36.624;-64.282;2022-08-14T07:38:36;13.70;99.90
59973;DHT22;55298;-36.624;-64.282;2022-08-14T07:41:08;13.60;99.90
59973;DHT22;55298;-36.624;-64.282;2022-08-14T07:43:39;13.50;99.90
59973;DHT22;55298;-36.624;-64.282;2022-08-14T07:46:08;13.30;99.90
59973;DHT22;55298;-36.624;-64.282;2022-08-14T07:48:39;13.30;99.90
59973;DHT22;55298;-36.624;-64.282;2022-08-14T07:51:10;13.10;99.90
59973;DHT22;55298;-36.624;-64.282;2022-08-14T07:53:38;13.10;99.90
59973;DHT22;55298;-36.624;-64.282;2022-08-14T07:56:08;13.10;99.90
59973;DHT22;55298;-36.624;-64.282;2022-08-14T07:58:37;13.20;99.90
59973;DHT22;55298;-36.624;-64.282;2022-08-14T08:01:06;13.20;99.90
59973;DHT22;55298;-36.624;-64.282;2022-08-14T08:03:37;13.10;99.90
59973;DHT22;55298;-36.624;-64.282;2022-08-14T08:06:09;13.00;99.90
59973;DHT22;55298;-36.624;-64.282;2022-08-14T08:08:38;13.00;99.90
59973;DHT22;55298;-36.624;-64.282;2022-08-14T08:11:05;13.00;99.90
59973;DHT22;55298;-36.624;-64.282;2022-08-14T08:13:35;12.80;99.90
59973;DHT22;55298;-36.624;-64.282;2022-08-14T08:16:04;12.80;99.90
59973;DHT22;55298;-36.624;-64.282;2022-08-14T08:18:34;12.80;99.90
59973;DHT22;55298;-36.624;-64.282;2022-08-14T08:21:02;12.70;99.90
59973;DHT22;55298;-36.624;-64.282;2022-08-14T08:23:31;12.70;99.90
59973;DHT22;55298;-36.624;-64.282;2022-08-14T08:26:00;12.70;99.90
59973;DHT22;55298;-36.624;-64.282;2022-08-14T08:28:29;12.60;99.90
59973;DHT22;55298;-36.624;-64.282;2022-08-14T08:31:00;12.80;99.90
59973;DHT22;55298;-36.624;-64.282;2022-08-14T08:33:32;12.80;99.90
59973;DHT22;55298;-36.624;-64.282;2022-08-14T08:36:07;12.80;99.90
59973;DHT22;55298;-36.624;-64.282;2022-08-14T08:38:36;12.80;99.90
59973;DHT22;55298;-36.624;-64.282;2022-08-14T08:41:04;12.80;99.90
59973;DHT22;55298;-36.624;-64.282;2022-08-14T08:43:35;12.80;99.90
59973;DHT22;55298;-36.624;-64.282;2022-08-14T08:46:06;12.80;99.90
59973;DHT22;55298;-36.624;-64.282;2022-08-14T08:48:46;12.80;99.90
59973;DHT22;55298;-36.624;-64.282;2022-08-14T08:51:23;12.80;99.90
59973;DHT22;55298;-36.624;-64.282;2022-08-14T08:53:59;12.70;99.90
59973;DHT22;55298;-36.624;-64.282;2022-08-14T08:56:42;12.60;99.90
59973;DHT22;55298;-36.624;-64.282;2022-08-14T08:59:29;12.70;99.90
59973;DHT22;55298;-36.624;-64.282;2022-08-14T09:02:00;12.70;99.90
59973;DHT22;55298;-36.624;-64.282;2022-08-14T09:04:33;12.70;99.90
59973;DHT22;55298;-36.624;-64.282;2022-08-14T09:07:04;12.70;99.90
59973;DHT22;55298;-36.624;-64.282;2022-08-14T09:09:34;12.70;99.90
59973;DHT22;55298;-36.624;-64.282;2022-08-14T09:12:17;12.80;99.90
59973;DHT22;55298;-36.624;-64.282;2022-08-14T09:14:47;12.70;99.90
59973;DHT22;55298;-36.624;-64.282;2022-08-14T09:17:19;12.60;99.90
59973;DHT22;55298;-36.624;-64.282;2022-08-14T09:19:50;12.50;99.90
59973;DHT22;55298;-36.624;-64.282;2022-08-14T09:22:20;12.50;99.90
59973;DHT22;55298;-36.624;-64.282;2022-08-14T09:24:49;12.50;99.90
59973;DHT22;55298;-36.624;-64.282;2022-08-14T09:27:17;12.40;99.90
59973;DHT22;55298;-36.624;-64.282;2022-08-14T09:29:47;12.30;99.90
59973;DHT22;55298;-36.624;-64.282;2022-08-14T09:32:26;12.30;99.90
59973;DHT22;55298;-36.624;-64.282;2022-08-14T09:35:14;12.20;99.90
59973;DHT22;55298;-36.624;-64.282;2022-08-14T09:38:04;12.20;99.90
59973;DHT22;55298;-36.624;-64.282;2022-08-14T09:41:09;12.20;99.90
59973;DHT22;55298;-36.624;-64.282;2022-08-14T09:43:45;12.20;99.90
59973;DHT22;55298;-36.624;-64.282;2022-08-14T09:46:19;12.20;99.90
59973;DHT22;55298;-36.624;-64.282;2022-08-14T09:49:00;12.10;99.90
59973;DHT22;55298;-36.624;-64.282;2022-08-14T09:51:30;12.10;99.90
59973;DHT22;55298;-36.624;-64.282;2022-08-14T09:54:03;12.10;99.90
59973;DHT22;55298;-36.624;-64.282;2022-08-14T09:56:50;12.10;99.90
59973;DHT22;55298;-36.624;-64.282;2022-08-14T09:59:19;12.10;99.90
59973;DHT22;55298;-36.624;-64.282;2022-08-14T10:01:50;12.00;99.90
59973;DHT22;55298;-36.624;-64.282;2022-08-14T10:04:22;12.00;99.90
59973;DHT22;55298;-36.624;-64.282;2022-08-14T10:06:50;12.10;99.90
59973;DHT22;55298;-36.624;-64.282;2022-08-14T10:09:20;12.00;99.90
59973;DHT22;55298;-36.624;-64.282;2022-08-14T10:11:57;11.90;99.90
59973;DHT22;55298;-36.624;-64.282;2022-08-14T10:14:29;11.80;99.90
59973;DHT22;55298;-36.624;-64.282;2022-08-14T10:16:58;11.80;99.90
59973;DHT22;55298;-36.624;-64.282;2022-08-14T10:19:28;11.70;99.90
59973;DHT22;55298;-36.624;-64.282;2022-08-14T10:22:00;11.70;99.90
59973;DHT22;55298;-36.624;-64.282;2022-08-14T10:24:40;11.70;99.90
59973;DHT22;55298;-36.624;-64.282;2022-08-14T10:27:27;11.50;99.90
59973;DHT22;55298;-36.624;-64.282;2022-08-14T10:29:59;11.40;99.90
59973;DHT22;55298;-36.624;-64.282;2022-08-14T10:32:30;11.40;99.90
59973;DHT22;55298;-36.624;-64.282;2022-08-14T10:35:11;11.20;99.90
59973;DHT22;55298;-36.624;-64.282;2022-08-14T10:37:44;11.20;99.90
59973;DHT22;55298;-36.624;-64.282;2022-08-14T10:40:28;11.20;99.90
59973;DHT22;55298;-36.624;-64.282;2022-08-14T10:42:57;11.10;99.90
59973;DHT22;55298;-36.624;-64.282;2022-08-14T10:45:32;11.10;99.90
59973;DHT22;55298;-36.624;-64.282;2022-08-14T10:48:13;11.10;99.90
59973;DHT22;55298;-36.624;-64.282;2022-08-14T10:50:43;11.10;99.90
59973;DHT22;55298;-36.624;-64.282;2022-08-14T10:56:00;11.10;99.90
59973;DHT22;55298;-36.624;-64.282;2022-08-14T10:58:33;11.10;99.90
59973;DHT22;55298;-36.624;-64.282;2022-08-14T11:01:02;11.20;99.90
59973;DHT22;55298;-36.624;-64.282;2022-08-14T11:03:41;11.10;99.90
59973;DHT22;55298;-36.624;-64.282;2022-08-14T11:06:13;11.20;99.90
59973;DHT22;55298;-36.624;-64.282;2022-08-14T11:08:46;11.20;99.90
59973;DHT22;55298;-36.624;-64.282;2022-08-14T11:11:18;11.20;99.90
59973;DHT22;55298;-36.624;-64.282;2022-08-14T11:13:48;11.20;99.90
59973;DHT22;55298;-36.624;-64.282;2022-08-14T11:16:17;11.20;99.90
59973;DHT22;55298;-36.624;-64.282;2022-08-14T11:18:47;11.20;99.90
59973;DHT22;55298;-36.624;-64.282;2022-08-14T11:21:18;11.10;99.80
59973;DHT22;55298;-36.624;-64.282;2022-08-14T11:23:49;11.10;99.90
59973;DHT22;55298;-36.624;-64.282;2022-08-14T11:26:18;11.20;98.20
59973;DHT22;55298;-36.624;-64.282;2022-08-14T11:28:50;11.10;98.40
59973;DHT22;55298;-36.624;-64.282;2022-08-14T11:31:21;10.90;96.20
59973;DHT22;55298;-36.624;-64.282;2022-08-14T11:33:53;11.20;96.50
59973;DHT22;55298;-36.624;-64.282;2022-08-14T11:36:25;11.20;95.00
59973;DHT22;55298;-36.624;-64.282;2022-08-14T11:38:55;11.20;94.50
59973;DHT22;55298;-36.624;-64.282;2022-08-14T11:41:25;11.20;94.00
59973;DHT22;55298;-36.624;-64.282;2022-08-14T11:43:54;11.20;94.30
59973;DHT22;55298;-36.624;-64.282;2022-08-14T11:46:22;11.20;94.10
59973;DHT22;55298;-36.624;-64.282;2022-08-14T11:48:52;11.30;93.30
59973;DHT22;55298;-36.624;-64.282;2022-08-14T11:51:23;11.30;93.40
59973;DHT22;55298;-36.624;-64.282;2022-08-14T11:53:59;11.40;92.80
59973;DHT22;55298;-36.624;-64.282;2022-08-14T11:56:36;11.40;92.70
59973;DHT22;55298;-36.624;-64.282;2022-08-14T11:59:15;11.50;92.40
59973;DHT22;55298;-36.624;-64.282;2022-08-14T12:01:44;11.60;91.50
59973;DHT22;55298;-36.624;-64.282;2022-08-14T12:04:16;11.70;90.80
59973;DHT22;55298;-36.624;-64.282;2022-08-14T12:06:49;11.80;90.00
59973;DHT22;55298;-36.624;-64.282;2022-08-14T12:09:32;11.90;88.40
59973;DHT22;55298;-36.624;-64.282;2022-08-14T12:12:01;12.10;84.80
59973;DHT22;55298;-36.624;-64.282;2022-08-14T12:14:52;12.10;85.60
59973;DHT22;55298;-36.624;-64.282;2022-08-14T12:17:25;12.20;84.10
59973;DHT22;55298;-36.624;-64.282;2022-08-14T12:19:59;12.30;83.20
59973;DHT22;55298;-36.624;-64.282;2022-08-14T12:22:36;12.40;82.00
59973;DHT22;55298;-36.624;-64.282;2022-08-14T12:25:07;12.80;78.70
59973;DHT22;55298;-36.624;-64.282;2022-08-14T12:27:39;12.80;79.00
59973;DHT22;55298;-36.624;-64.282;2022-08-14T12:30:12;12.80;79.80
59973;DHT22;55298;-36.624;-64.282;2022-08-14T12:32:43;13.00;79.90
59973;DHT22;55298;-36.624;-64.282;2022-08-14T12:35:13;13.20;81.00
59973;DHT22;55298;-36.624;-64.282;2022-08-14T12:37:57;13.20;81.80
59973;DHT22;55298;-36.624;-64.282;2022-08-14T12:40:24;13.30;82.30
59973;DHT22;55298;-36.624;-64.282;2022-08-14T12:43:00;13.50;83.10
59973;DHT22;55298;-36.624;-64.282;2022-08-14T12:45:32;13.60;82.80
59973;DHT22;55298;-36.624;-64.282;2022-08-14T12:48:05;13.60;83.90
59973;DHT22;55298;-36.624;-64.282;2022-08-14T12:50:37;13.80;83.90
59973;DHT22;55298;-36.624;-64.282;2022-08-14T12:53:06;14.10;82.60
59973;DHT22;55298;-36.624;-64.282;2022-08-14T12:55:38;14.10;81.90
59973;DHT22;55298;-36.624;-64.282;2022-08-14T12:58:09;14.10;80.80
59973;DHT22;55298;-36.624;-64.282;2022-08-14T13:00:47;14.10;81.30
59973;DHT22;55298;-36.624;-64.282;2022-08-14T13:03:31;14.10;79.50
59973;DHT22;55298;-36.624;-64.282;2022-08-14T13:06:01;14.20;78.60
59973;DHT22;55298;-36.624;-64.282;2022-08-14T13:08:30;14.40;78.30
59973;DHT22;55298;-36.624;-64.282;2022-08-14T13:11:00;14.50;75.80
59973;DHT22;55298;-36.624;-64.282;2022-08-14T13:13:32;14.60;74.50
59973;DHT22;55298;-36.624;-64.282;2022-08-14T13:16:02;14.80;73.90
59973;DHT22;55298;-36.624;-64.282;2022-08-14T13:18:32;15.10;70.40
59973;DHT22;55298;-36.624;-64.282;2022-08-14T13:21:02;15.50;67.40
59973;DHT22;55298;-36.624;-64.282;2022-08-14T13:23:33;15.80;63.80
59973;DHT22;55298;-36.624;-64.282;2022-08-14T13:26:03;15.90;62.90
59973;DHT22;55298;-36.624;-64.282;2022-08-14T13:28:39;15.80;61.40
59973;DHT22;55298;-36.624;-64.282;2022-08-14T13:31:13;16.10;59.40
59973;DHT22;55298;-36.624;-64.282;2022-08-14T13:33:43;16.10;56.60
59973;DHT22;55298;-36.624;-64.282;2022-08-14T13:36:12;16.30;55.60
59973;DHT22;55298;-36.624;-64.282;2022-08-14T13:38:43;16.60;54.50
59973;DHT22;55298;-36.624;-64.282;2022-08-14T13:41:16;16.60;53.60
59973;DHT22;55298;-36.624;-64.282;2022-08-14T13:43:49;16.80;52.50
59973;DHT22;55298;-36.624;-64.282;2022-08-14T13:46:18;17.10;51.40
59973;DHT22;55298;-36.624;-64.282;2022-08-14T13:48:47;17.10;50.50
59973;DHT22;55298;-36.624;-64.282;2022-08-14T13:51:17;17.00;51.10
59973;DHT22;55298;-36.624;-64.282;2022-08-14T13:53:56;16.70;51.60
59973;DHT22;55298;-36.624;-64.282;2022-08-14T13:56:25;16.60;52.60
59973;DHT22;55298;-36.624;-64.282;2022-08-14T13:58:57;16.80;52.60
59973;DHT22;55298;-36.624;-64.282;2022-08-14T14:01:27;16.60;53.30
59973;DHT22;55298;-36.624;-64.282;2022-08-14T14:04:03;16.60;54.00
59973;DHT22;55298;-36.624;-64.282;2022-08-14T14:06:33;16.60;53.60
59973;DHT22;55298;-36.624;-64.282;2022-08-14T14:09:03;16.90;53.20
59973;DHT22;55298;-36.624;-64.282;2022-08-14T14:11:32;17.00;53.10
59973;DHT22;55298;-36.624;-64.282;2022-08-14T14:14:00;16.90;53.90
59973;DHT22;55298;-36.624;-64.282;2022-08-14T14:16:30;17.00;54.60
59973;DHT22;55298;-36.624;-64.282;2022-08-14T14:18:59;16.90;54.60
59973;DHT22;55298;-36.624;-64.282;2022-08-14T14:21:29;17.00;55.70
59973;DHT22;55298;-36.624;-64.282;2022-08-14T14:24:01;17.40;55.10
59973;DHT22;55298;-36.624;-64.282;2022-08-14T14:26:30;17.40;54.80
59973;DHT22;55298;-36.624;-64.282;2022-08-14T14:29:00;17.40;56.00
59973;DHT22;55298;-36.624;-64.282;2022-08-14T14:31:29;17.50;55.90
59973;DHT22;55298;-36.624;-64.282;2022-08-14T14:34:01;17.50;57.00
59973;DHT22;55298;-36.624;-64.282;2022-08-14T14:36:30;17.60;56.20
59973;DHT22;55298;-36.624;-64.282;2022-08-14T14:39:05;17.70;57.40
59973;DHT22;55298;-36.624;-64.282;2022-08-14T14:41:38;17.90;55.50
59973;DHT22;55298;-36.624;-64.282;2022-08-14T14:44:08;18.00;55.10
59973;DHT22;55298;-36.624;-64.282;2022-08-14T14:46:42;18.20;54.60
59973;DHT22;55298;-36.624;-64.282;2022-08-14T14:49:17;18.00;53.50
59973;DHT22;55298;-36.624;-64.282;2022-08-14T14:51:47;17.90;52.80
59973;DHT22;55298;-36.624;-64.282;2022-08-14T14:54:18;18.00;53.00
59973;DHT22;55298;-36.624;-64.282;2022-08-14T14:56:49;18.00;51.30
59973;DHT22;55298;-36.624;-64.282;2022-08-14T14:59:19;17.80;51.60
59973;DHT22;55298;-36.624;-64.282;2022-08-14T15:01:49;17.60;50.40
59973;DHT22;55298;-36.624;-64.282;2022-08-14T15:04:19;17.50;51.20
59973;DHT22;55298;-36.624;-64.282;2022-08-14T15:06:51;17.30;52.10
59973;DHT22;55298;-36.624;-64.282;2022-08-14T15:09:21;17.30;52.40
59973;DHT22;55298;-36.624;-64.282;2022-08-14T15:11:50;17.30;51.20
59973;DHT22;55298;-36.624;-64.282;2022-08-14T15:14:19;17.20;52.70
59973;DHT22;55298;-36.624;-64.282;2022-08-14T15:16:47;17.00;53.60